Time;durP1;ratioP1;P1;durP2;ratioP2;P2;SDS_P1;SDS_P2;PMS_P1;PMS_P2;Temp;Humidity;BMP_temperature;BMP_pressure;BME280_temperature;BME280_humidity;BME280_pressure;Samples;Min_cycle;Max_cycle;Signal;HPM_P1;HPM_P2
2022/09/08 00:01:58;;;;;;;;;;;18.60;99.90;;;;;;5086262;28;19916;-79
2022/09/08 00:04:24;;;;;;;;;;;18.60;99.90;;;;;;5100161;28;20268;-79
2022/09/08 00:06:50;;;;;;;;;;;18.60;99.90;;;;;;5102713;28;19918;-78
2022/09/08 00:09:16;;;;;;;;;;;18.60;99.90;;;;;;5102748;28;20355;-76
2022/09/08 00:11:42;;;;;;;;;;;18.60;99.90;;;;;;5086886;28;20015;-76
2022/09/08 00:14:07;;;;;;;;;;;18.60;99.90;;;;;;5103070;28;19922;-75
2022/09/08 00:16:33;;;;;;;;;;;18.60;99.90;;;;;;5105083;28;19923;-76
2022/09/08 00:18:59;;;;;;;;;;;18.60;99.90;;;;;;5098350;28;20010;-75
2022/09/08 00:21:26;;;;;;;;;;;18.60;99.90;;;;;;5109819;28;20302;-78
2022/09/08 00:23:51;;;;;;;;;;;18.60;99.90;;;;;;5109299;28;19962;-76
2022/09/08 00:26:18;;;;;;;;;;;18.60;99.90;;;;;;5102237;28;19974;-77
2022/09/08 00:28:43;;;;;;;;;;;18.50;99.90;;;;;;5102126;28;19934;-76
2022/09/08 00:31:09;;;;;;;;;;;18.50;99.90;;;;;;5088395;28;19920;-77
2022/09/08 00:33:34;;;;;;;;;;;18.50;99.90;;;;;;5109189;28;19908;-76
2022/09/08 00:36:03;;;;;;;;;;;18.50;99.90;;;;;;5104074;28;19911;-76
2022/09/08 00:38:30;;;;;;;;;;;18.60;99.90;;;;;;5100281;28;19916;-75
2022/09/08 00:40:57;;;;;;;;;;;18.60;99.90;;;;;;5109872;28;19957;-75
2022/09/08 00:43:33;;;;;;;;;;;18.60;99.90;;;;;;5106758;28;19980;-75
2022/09/08 00:46:04;;;;;;;;;;;18.50;99.90;;;;;;5106547;28;19912;-75
2022/09/08 00:48:31;;;;;;;;;;;18.60;99.90;;;;;;5087394;28;19926;-75
2022/09/08 00:50:58;;;;;;;;;;;18.50;99.90;;;;;;5101163;28;20353;-76
2022/09/08 00:53:24;;;;;;;;;;;18.50;99.90;;;;;;5085089;28;19939;-76
2022/09/08 00:55:50;;;;;;;;;;;18.40;99.90;;;;;;5106785;28;19912;-75
2022/09/08 00:58:16;;;;;;;;;;;18.40;99.90;;;;;;5104212;28;20269;-75
2022/09/08 01:00:42;;;;;;;;;;;18.30;99.90;;;;;;5089920;28;20211;-76
2022/09/08 01:03:12;;;;;;;;;;;18.30;99.90;;;;;;5107426;28;19916;-76
2022/09/08 01:05:52;;;;;;;;;;;18.30;99.90;;;;;;5098637;28;19952;-75
2022/09/08 01:14:12;;;;;;;;;;;18.20;99.90;;;;;;5105627;28;19964;-75
2022/09/08 01:16:40;;;;;;;;;;;18.30;99.90;;;;;;5092119;28;20065;-76
2022/09/08 01:19:12;;;;;;;;;;;18.40;99.90;;;;;;5107136;28;19919;-76
2022/09/08 01:21:44;;;;;;;;;;;18.30;99.90;;;;;;5106586;28;19912;-76
2022/09/08 01:24:21;;;;;;;;;;;18.30;99.90;;;;;;5107572;28;19912;-76
2022/09/08 01:26:49;;;;;;;;;;;18.30;99.90;;;;;;5091161;28;19912;-76
2022/09/08 01:29:16;;;;;;;;;;;18.30;99.90;;;;;;5093907;28;19912;-77
2022/09/08 01:31:42;;;;;;;;;;;18.30;99.90;;;;;;5092243;28;20237;-77
2022/09/08 01:34:08;;;;;;;;;;;18.40;99.90;;;;;;5109691;28;19944;-76
2022/09/08 01:36:33;;;;;;;;;;;18.40;99.90;;;;;;5114020;28;19959;-76
2022/09/08 01:38:59;;;;;;;;;;;18.30;99.90;;;;;;5102731;28;19915;-77
2022/09/08 01:41:25;;;;;;;;;;;18.20;99.90;;;;;;5085269;28;19955;-77
2022/09/08 01:43:50;;;;;;;;;;;18.20;99.90;;;;;;5092123;28;19974;-77
2022/09/08 01:46:16;;;;;;;;;;;18.20;99.90;;;;;;5108832;28;19916;-76
2022/09/08 01:48:41;;;;;;;;;;;18.10;99.90;;;;;;5096560;28;20352;-79
2022/09/08 01:51:07;;;;;;;;;;;18.00;99.90;;;;;;5103556;28;20034;-76
2022/09/08 01:53:33;;;;;;;;;;;17.90;99.90;;;;;;5111365;28;19970;-77
2022/09/08 01:55:59;;;;;;;;;;;17.90;99.90;;;;;;5108871;28;19951;-80
2022/09/08 01:58:24;;;;;;;;;;;17.80;99.90;;;;;;5104379;28;20352;-79
2022/09/08 02:00:50;;;;;;;;;;;17.80;99.90;;;;;;5088092;28;19974;-77
2022/09/08 02:03:16;;;;;;;;;;;17.70;99.90;;;;;;5079749;28;19935;-77
2022/09/08 02:05:43;;;;;;;;;;;17.70;99.90;;;;;;5092006;28;20596;-78
2022/09/08 02:08:09;;;;;;;;;;;17.70;99.90;;;;;;5082462;28;19934;-80
2022/09/08 02:10:34;;;;;;;;;;;17.60;99.90;;;;;;5093855;28;20374;-79
2022/09/08 02:13:01;;;;;;;;;;;17.60;99.90;;;;;;5114333;28;20015;-81
2022/09/08 02:15:27;;;;;;;;;;;17.60;99.90;;;;;;5084617;28;19991;-79
2022/09/08 02:17:52;;;;;;;;;;;17.60;99.90;;;;;;5108015;28;19939;-79
2022/09/08 02:20:18;;;;;;;;;;;17.60;99.90;;;;;;5089333;28;20009;-80
2022/09/08 02:22:44;;;;;;;;;;;17.60;99.90;;;;;;5108720;28;19907;-80
2022/09/08 02:25:09;;;;;;;;;;;17.60;99.90;;;;;;5094022;28;19915;-77
2022/09/08 02:27:35;;;;;;;;;;;17.60;99.90;;;;;;5108277;28;19915;-80
2022/09/08 02:30:00;;;;;;;;;;;17.60;99.90;;;;;;5103807;28;19923;-79
2022/09/08 02:32:26;;;;;;;;;;;17.60;99.90;;;;;;5087041;28;19916;-80
2022/09/08 02:34:52;;;;;;;;;;;17.50;99.90;;;;;;5106647;28;19920;-79
2022/09/08 02:37:17;;;;;;;;;;;17.40;99.90;;;;;;5107751;28;19916;-78
2022/09/08 02:39:44;;;;;;;;;;;17.40;99.90;;;;;;5111942;28;19916;-77
2022/09/08 02:42:10;;;;;;;;;;;17.30;99.90;;;;;;5098751;28;19923;-77
2022/09/08 02:44:36;;;;;;;;;;;17.20;99.90;;;;;;5082564;28;19926;-77
2022/09/08 02:47:01;;;;;;;;;;;17.20;99.90;;;;;;5101150;28;19912;-80
2022/09/08 02:49:27;;;;;;;;;;;17.10;99.90;;;;;;5092946;28;19916;-78
2022/09/08 02:51:52;;;;;;;;;;;17.10;99.90;;;;;;5108430;28;20222;-77
2022/09/08 02:54:18;;;;;;;;;;;17.10;99.90;;;;;;5107453;28;19945;-81
2022/09/08 02:56:43;;;;;;;;;;;17.00;99.90;;;;;;5095045;28;19919;-78
2022/09/08 02:59:09;;;;;;;;;;;17.00;99.90;;;;;;5097002;28;19916;-87
2022/09/08 03:01:35;;;;;;;;;;;16.90;99.90;;;;;;5114137;28;19912;-86
2022/09/08 03:04:01;;;;;;;;;;;16.90;99.90;;;;;;5102962;28;20018;-77
2022/09/08 03:06:26;;;;;;;;;;;16.90;99.90;;;;;;5089895;28;19923;-79
2022/09/08 03:08:52;;;;;;;;;;;16.80;99.90;;;;;;5083280;28;19916;-76
2022/09/08 03:11:17;;;;;;;;;;;16.80;99.90;;;;;;5084077;28;19919;-83
2022/09/08 03:13:43;;;;;;;;;;;16.80;99.90;;;;;;5078671;28;19912;-77
2022/09/08 03:16:09;;;;;;;;;;;16.80;99.90;;;;;;5090783;28;20222;-76
2022/09/08 03:18:34;;;;;;;;;;;16.80;99.90;;;;;;5104375;28;19919;-77
2022/09/08 03:21:10;;;;;;;;;;;16.80;99.90;;;;;;5101119;28;19913;-78
2022/09/08 03:23:35;;;;;;;;;;;16.80;99.90;;;;;;5104177;28;19965;-76
2022/09/08 03:26:02;;;;;;;;;;;16.90;99.90;;;;;;5108127;28;20002;-79
2022/09/08 03:28:28;;;;;;;;;;;16.90;99.90;;;;;;5106801;28;19916;-78
2022/09/08 03:30:53;;;;;;;;;;;16.80;99.90;;;;;;5085895;28;19920;-79
2022/09/08 03:33:19;;;;;;;;;;;16.80;99.90;;;;;;5102872;28;19986;-81
2022/09/08 03:35:46;;;;;;;;;;;16.80;99.90;;;;;;5114129;28;19912;-80
2022/09/08 03:38:13;;;;;;;;;;;16.80;99.90;;;;;;5091533;28;19923;-80
2022/09/08 03:40:39;;;;;;;;;;;16.80;99.90;;;;;;5094888;28;19994;-78
2022/09/08 03:43:05;;;;;;;;;;;16.80;99.90;;;;;;5088490;28;20011;-79
2022/09/08 03:45:31;;;;;;;;;;;16.80;99.90;;;;;;5108801;28;20006;-79
2022/09/08 03:47:56;;;;;;;;;;;16.80;99.90;;;;;;5116098;28;20418;-79
2022/09/08 03:50:22;;;;;;;;;;;16.80;99.90;;;;;;5086132;28;20003;-80
2022/09/08 03:52:48;;;;;;;;;;;16.80;99.90;;;;;;5092349;28;20268;-80
2022/09/08 03:55:13;;;;;;;;;;;16.80;99.90;;;;;;5112894;28;19911;-79
2022/09/08 03:57:39;;;;;;;;;;;16.80;99.90;;;;;;5111783;28;19943;-80
2022/09/08 04:00:06;;;;;;;;;;;16.80;99.90;;;;;;5091123;28;19912;-78
2022/09/08 04:02:32;;;;;;;;;;;16.80;99.90;;;;;;5096767;28;20026;-77
2022/09/08 04:04:58;;;;;;;;;;;16.80;99.90;;;;;;5109186;28;20007;-81
2022/09/08 04:07:25;;;;;;;;;;;16.80;99.90;;;;;;5097623;28;20026;-79
2022/09/08 04:09:51;;;;;;;;;;;16.90;99.90;;;;;;5107531;28;19920;-78
2022/09/08 04:12:17;;;;;;;;;;;16.90;99.90;;;;;;5103575;28;20572;-78
2022/09/08 04:14:42;;;;;;;;;;;16.90;99.90;;;;;;5086831;28;19969;-78
2022/09/08 04:17:08;;;;;;;;;;;16.90;99.90;;;;;;5100058;28;20011;-77
2022/09/08 04:19:34;;;;;;;;;;;17.00;99.90;;;;;;5101949;28;19924;-78
2022/09/08 04:22:00;;;;;;;;;;;16.90;99.90;;;;;;5085410;28;20205;-79
2022/09/08 04:24:25;;;;;;;;;;;16.90;99.90;;;;;;5104618;28;19925;-78
2022/09/08 04:26:51;;;;;;;;;;;17.00;99.90;;;;;;5098189;28;19926;-80
2022/09/08 04:29:17;;;;;;;;;;;17.00;99.90;;;;;;5085073;28;19908;-78
2022/09/08 04:31:43;;;;;;;;;;;16.90;99.90;;;;;;5095045;28;19924;-76
2022/09/08 04:34:10;;;;;;;;;;;17.00;99.90;;;;;;5079288;28;19999;-78
2022/09/08 04:36:35;;;;;;;;;;;17.00;99.90;;;;;;5080655;28;20007;-79
2022/09/08 04:39:01;;;;;;;;;;;17.00;99.90;;;;;;5093320;28;20354;-77
2022/09/08 04:41:28;;;;;;;;;;;17.00;99.90;;;;;;5091400;28;19947;-78
2022/09/08 04:43:54;;;;;;;;;;;17.10;99.90;;;;;;5079787;28;19941;-79
2022/09/08 04:46:20;;;;;;;;;;;17.10;99.90;;;;;;5102253;28;19919;-79
2022/09/08 04:48:46;;;;;;;;;;;17.10;99.90;;;;;;5067476;28;20006;-80
2022/09/08 04:51:13;;;;;;;;;;;17.10;99.90;;;;;;5106743;28;20014;-78
2022/09/08 04:53:39;;;;;;;;;;;17.10;99.90;;;;;;5087863;28;19916;-80
2022/09/08 04:56:05;;;;;;;;;;;17.10;99.90;;;;;;5088679;28;19935;-76
2022/09/08 04:58:31;;;;;;;;;;;17.00;99.90;;;;;;5101785;28;19938;-77
2022/09/08 05:01:07;;;;;;;;;;;16.90;99.90;;;;;;5106121;28;19916;-80
2022/09/08 05:03:33;;;;;;;;;;;16.90;99.90;;;;;;5107288;28;19919;-80
2022/09/08 05:06:02;;;;;;;;;;;16.90;99.90;;;;;;5105388;28;19915;-81
2022/09/08 05:08:28;;;;;;;;;;;16.90;99.90;;;;;;5107516;28;20307;-82
2022/09/08 05:10:53;;;;;;;;;;;16.90;99.90;;;;;;5099279;28;19928;-81
2022/09/08 05:13:19;;;;;;;;;;;16.80;99.90;;;;;;5097356;28;19957;-81
2022/09/08 05:15:45;;;;;;;;;;;16.80;99.90;;;;;;5086703;28;19923;-80
2022/09/08 05:18:10;;;;;;;;;;;16.80;99.90;;;;;;5095328;28;19959;-83
2022/09/08 05:20:36;;;;;;;;;;;16.80;99.90;;;;;;5098965;28;19954;-78
2022/09/08 05:23:01;;;;;;;;;;;16.80;99.90;;;;;;5109064;28;19915;-80
2022/09/08 05:25:27;;;;;;;;;;;16.80;99.90;;;;;;5090340;28;20010;-79
2022/09/08 05:27:53;;;;;;;;;;;16.80;99.90;;;;;;5085325;28;19923;-82
2022/09/08 05:30:18;;;;;;;;;;;16.80;99.90;;;;;;5104462;28;19916;-79
2022/09/08 05:32:44;;;;;;;;;;;16.70;99.90;;;;;;5084539;28;19916;-79
2022/09/08 05:35:09;;;;;;;;;;;16.70;99.90;;;;;;5107889;28;20299;-82
2022/09/08 05:37:35;;;;;;;;;;;16.80;99.90;;;;;;5085930;28;20019;-82
2022/09/08 05:40:01;;;;;;;;;;;16.80;99.90;;;;;;5100498;28;19967;-83
2022/09/08 05:42:26;;;;;;;;;;;16.70;99.90;;;;;;5100513;28;19919;-81
2022/09/08 05:44:52;;;;;;;;;;;16.70;99.90;;;;;;5076723;28;19916;-81
2022/09/08 05:47:17;;;;;;;;;;;16.70;99.90;;;;;;5104084;28;19990;-81
2022/09/08 05:49:43;;;;;;;;;;;16.80;99.90;;;;;;5104252;28;20215;-79
2022/09/08 05:52:08;;;;;;;;;;;16.80;99.90;;;;;;5084785;28;20048;-82
2022/09/08 05:54:35;;;;;;;;;;;16.80;99.90;;;;;;5106085;28;19915;-82
2022/09/08 05:57:00;;;;;;;;;;;16.80;99.90;;;;;;5107439;28;20279;-81
2022/09/08 05:59:26;;;;;;;;;;;16.80;99.90;;;;;;5083490;28;19912;-79
2022/09/08 06:01:51;;;;;;;;;;;16.80;99.90;;;;;;5105280;28;20230;-81
2022/09/08 06:04:18;;;;;;;;;;;16.80;99.90;;;;;;5090877;28;20330;-80
2022/09/08 06:06:44;;;;;;;;;;;16.80;99.90;;;;;;5088561;28;19912;-84
2022/09/08 06:09:12;;;;;;;;;;;16.80;99.90;;;;;;5088456;28;20007;-81
2022/09/08 06:11:38;;;;;;;;;;;16.80;99.90;;;;;;5108837;28;19919;-81
2022/09/08 06:14:05;;;;;;;;;;;16.80;99.90;;;;;;5087863;28;20374;-81
2022/09/08 06:16:31;;;;;;;;;;;16.90;99.90;;;;;;5083174;28;20003;-82
2022/09/08 06:18:58;;;;;;;;;;;16.80;99.90;;;;;;5086199;28;19927;-81
2022/09/08 06:21:24;;;;;;;;;;;16.90;99.90;;;;;;5102193;28;20267;-82
2022/09/08 06:23:51;;;;;;;;;;;16.80;99.90;;;;;;5093569;28;20298;-80
2022/09/08 06:26:16;;;;;;;;;;;16.90;99.90;;;;;;5094716;28;19920;-81
2022/09/08 06:28:55;;;;;;;;;;;16.90;99.90;;;;;;5093600;28;19998;-80
2022/09/08 06:31:28;;;;;;;;;;;16.90;99.90;;;;;;5110323;28;19916;-79
2022/09/08 06:33:53;;;;;;;;;;;16.90;99.90;;;;;;5104602;28;19916;-82
2022/09/08 06:36:25;;;;;;;;;;;16.90;99.90;;;;;;5093286;28;20669;-80
2022/09/08 06:38:51;;;;;;;;;;;17.00;99.90;;;;;;5112154;28;19961;-81
2022/09/08 06:41:18;;;;;;;;;;;16.90;99.90;;;;;;5090339;28;19916;-80
2022/09/08 06:43:46;;;;;;;;;;;17.00;99.90;;;;;;5104835;28;19915;-79
2022/09/08 06:46:18;;;;;;;;;;;17.00;99.90;;;;;;5101008;28;20196;-80
2022/09/08 06:48:43;;;;;;;;;;;16.90;99.90;;;;;;5080902;28;19965;-78
2022/09/08 06:51:12;;;;;;;;;;;16.90;99.90;;;;;;5079386;28;19916;-80
2022/09/08 06:53:46;;;;;;;;;;;16.90;99.90;;;;;;5095180;28;20304;-80
2022/09/08 06:56:32;;;;;;;;;;;17.00;99.90;;;;;;5081151;28;19916;-79
2022/09/08 06:59:00;;;;;;;;;;;16.90;99.90;;;;;;5080011;28;20326;-80
2022/09/08 07:01:33;;;;;;;;;;;16.90;99.90;;;;;;5081978;28;19912;-80
2022/09/08 07:03:58;;;;;;;;;;;16.90;99.90;;;;;;5097718;28;20211;-77
2022/09/08 07:06:25;;;;;;;;;;;16.90;99.90;;;;;;5083625;28;19916;-78
2022/09/08 07:08:59;;;;;;;;;;;17.00;99.90;;;;;;5104236;28;20132;-79
2022/09/08 07:11:25;;;;;;;;;;;17.00;99.90;;;;;;5108667;28;20255;-78
2022/09/08 07:13:59;;;;;;;;;;;17.00;99.90;;;;;;5101554;28;19955;-79
2022/09/08 07:16:46;;;;;;;;;;;17.00;99.90;;;;;;5096297;28;19942;-82
2022/09/08 07:19:19;;;;;;;;;;;17.00;99.90;;;;;;5099660;28;20261;-80
2022/09/08 07:21:57;;;;;;;;;;;17.00;99.90;;;;;;5086030;28;19912;-82
2022/09/08 07:24:27;;;;;;;;;;;17.00;99.90;;;;;;5106293;28;19964;-80
2022/09/08 07:26:57;;;;;;;;;;;16.90;99.90;;;;;;5090304;28;19920;-78
2022/09/08 07:29:26;;;;;;;;;;;16.90;99.90;;;;;;5103546;28;19920;-78
2022/09/08 07:31:52;;;;;;;;;;;16.90;99.90;;;;;;5093456;28;19934;-80
2022/09/08 07:34:20;;;;;;;;;;;16.90;99.90;;;;;;5083592;28;20266;-81
2022/09/08 07:36:46;;;;;;;;;;;16.90;99.90;;;;;;5103393;28;19912;-82
2022/09/08 07:39:17;;;;;;;;;;;16.90;99.90;;;;;;5093355;28;20226;-79
2022/09/08 07:41:44;;;;;;;;;;;17.00;99.90;;;;;;5079006;28;20295;-82
2022/09/08 07:44:14;;;;;;;;;;;17.00;99.90;;;;;;5095849;28;19938;-82
2022/09/08 07:46:52;;;;;;;;;;;17.00;99.90;;;;;;5097038;28;19998;-86
2022/09/08 07:49:17;;;;;;;;;;;17.00;99.90;;;;;;5098344;28;19920;-85
2022/09/08 07:51:54;;;;;;;;;;;17.00;99.90;;;;;;5106644;28;19916;-85
2022/09/08 07:54:28;;;;;;;;;;;17.10;99.90;;;;;;5110697;28;19915;-85
2022/09/08 07:57:08;;;;;;;;;;;17.20;99.90;;;;;;5080670;28;20249;-80
2022/09/08 07:59:40;;;;;;;;;;;17.20;99.90;;;;;;5097422;28;19915;-80
2022/09/08 08:02:24;;;;;;;;;;;17.30;99.90;;;;;;5098769;28;19912;-78
2022/09/08 08:05:09;;;;;;;;;;;17.30;99.90;;;;;;5076989;28;20000;-80
2022/09/08 08:07:48;;;;;;;;;;;17.30;99.90;;;;;;5100208;28;19912;-80
2022/09/08 08:10:13;;;;;;;;;;;17.30;99.90;;;;;;5097691;28;20006;-79
2022/09/08 08:12:51;;;;;;;;;;;17.30;99.90;;;;;;5103212;28;20053;-79
2022/09/08 08:15:20;;;;;;;;;;;17.30;99.90;;;;;;5100755;28;19937;-79
2022/09/08 08:18:03;;;;;;;;;;;17.40;99.90;;;;;;5081588;28;19964;-78
2022/09/08 08:20:50;;;;;;;;;;;17.40;99.90;;;;;;5095114;28;19916;-79
2022/09/08 08:23:29;;;;;;;;;;;17.40;99.90;;;;;;5099169;28;19912;-77
2022/09/08 08:25:54;;;;;;;;;;;17.40;99.90;;;;;;5106658;28;19912;-77
2022/09/08 08:28:21;;;;;;;;;;;17.40;99.90;;;;;;5085554;28;19919;-78
2022/09/08 08:31:25;;;;;;;;;;;17.40;99.90;;;;;;5096531;28;19908;-78
2022/09/08 08:33:54;;;;;;;;;;;17.50;99.90;;;;;;5035105;28;19913;-76
2022/09/08 08:36:22;;;;;;;;;;;17.50;99.90;;;;;;5026907;28;20260;-80
2022/09/08 08:38:52;;;;;;;;;;;17.50;99.90;;;;;;5067801;28;19951;-77
2022/09/08 08:41:25;;;;;;;;;;;17.50;99.90;;;;;;5089018;28;19912;-76
2022/09/08 08:44:12;;;;;;;;;;;17.50;99.90;;;;;;5093901;28;20303;-76
2022/09/08 08:47:02;;;;;;;;;;;17.60;99.90;;;;;;5087616;28;19912;-76
2022/09/08 08:49:34;;;;;;;;;;;17.60;99.90;;;;;;5102758;28;19915;-77
2022/09/08 08:52:00;;;;;;;;;;;17.70;99.90;;;;;;5105949;28;19915;-76
2022/09/08 08:54:25;;;;;;;;;;;17.70;99.90;;;;;;5099433;28;20225;-77
2022/09/08 08:56:58;;;;;;;;;;;17.80;99.90;;;;;;5083335;28;19963;-78
2022/09/08 08:59:25;;;;;;;;;;;17.70;99.90;;;;;;5094253;28;19951;-76
2022/09/08 09:02:05;;;;;;;;;;;17.70;99.90;;;;;;5094289;28;19915;-76
2022/09/08 09:04:43;;;;;;;;;;;17.80;99.90;;;;;;5098835;28;19920;-76
2022/09/08 09:07:11;;;;;;;;;;;17.90;99.90;;;;;;5096437;28;19912;-76
2022/09/08 09:09:51;;;;;;;;;;;18.00;99.90;;;;;;5098802;28;20562;-77
2022/09/08 09:12:35;;;;;;;;;;;18.40;99.90;;;;;;5102490;28;19965;-76
2022/09/08 09:15:20;;;;;;;;;;;18.80;99.90;;;;;;5103465;28;19915;-76
2022/09/08 09:17:45;;;;;;;;;;;19.20;99.90;;;;;;5082876;28;19912;-76
2022/09/08 09:20:19;;;;;;;;;;;19.60;99.90;;;;;;5102300;28;20219;-76
2022/09/08 09:22:54;;;;;;;;;;;19.80;99.90;;;;;;5091637;28;20010;-77
2022/09/08 09:25:28;;;;;;;;;;;19.90;99.90;;;;;;5084421;28;19982;-76
2022/09/08 09:27:56;;;;;;;;;;;19.90;99.90;;;;;;5110764;28;19912;-75
2022/09/08 09:30:23;;;;;;;;;;;19.80;99.90;;;;;;5082440;28;19916;-75
2022/09/08 09:32:52;;;;;;;;;;;20.20;99.90;;;;;;5083054;28;20319;-76
2022/09/08 09:35:23;;;;;;;;;;;20.30;99.90;;;;;;5108144;28;19919;-76
2022/09/08 09:38:02;;;;;;;;;;;20.30;99.90;;;;;;5115874;28;19907;-77
2022/09/08 09:40:28;;;;;;;;;;;20.30;99.90;;;;;;5116571;28;19916;-76
2022/09/08 09:43:12;;;;;;;;;;;20.30;99.90;;;;;;5118725;28;19915;-75
2022/09/08 09:45:47;;;;;;;;;;;20.20;99.90;;;;;;5117785;28;19912;-75
2022/09/08 09:48:27;;;;;;;;;;;19.90;99.90;;;;;;5108487;28;19912;-76
2022/09/08 09:51:11;;;;;;;;;;;19.70;99.90;;;;;;5082681;28;19916;-75
2022/09/08 09:53:48;;;;;;;;;;;19.50;99.90;;;;;;5118395;28;19930;-76
2022/09/08 09:56:20;;;;;;;;;;;19.30;99.90;;;;;;5099442;28;20290;-76
2022/09/08 09:59:17;;;;;;;;;;;19.10;99.90;;;;;;5106758;28;19908;-76
2022/09/08 10:02:02;;;;;;;;;;;19.00;99.90;;;;;;5043013;28;20339;-76
2022/09/08 10:04:30;;;;;;;;;;;18.90;99.90;;;;;;5035888;28;20603;-75
2022/09/08 10:07:05;;;;;;;;;;;18.80;99.90;;;;;;5038174;28;19983;-77
2022/09/08 10:09:30;;;;;;;;;;;18.80;99.90;;;;;;5036950;28;20029;-75
2022/09/08 10:12:01;;;;;;;;;;;18.80;99.90;;;;;;5043309;28;20324;-75
2022/09/08 10:14:27;;;;;;;;;;;18.80;99.90;;;;;;5037838;28;19908;-75
2022/09/08 10:16:53;;;;;;;;;;;18.90;99.90;;;;;;5038409;28;20224;-76
2022/09/08 10:19:21;;;;;;;;;;;19.10;99.90;;;;;;5055005;28;19990;-75
2022/09/08 10:22:09;;;;;;;;;;;19.30;99.90;;;;;;5035812;28;20328;-75
2022/09/08 10:24:37;;;;;;;;;;;19.60;99.90;;;;;;5048900;28;19913;-76
2022/09/08 10:27:05;;;;;;;;;;;19.80;99.90;;;;;;5055299;28;20381;-75
2022/09/08 10:29:31;;;;;;;;;;;19.60;99.90;;;;;;5052202;28;19913;-76
2022/09/08 10:32:05;;;;;;;;;;;19.70;99.90;;;;;;5053165;28;19951;-77
2022/09/08 10:34:31;;;;;;;;;;;19.90;99.90;;;;;;5054569;28;19909;-77
2022/09/08 10:37:00;;;;;;;;;;;20.00;99.90;;;;;;5065508;28;19915;-76
2022/09/08 10:39:45;;;;;;;;;;;20.10;99.90;;;;;;5103469;28;20204;-76
2022/09/08 10:42:31;;;;;;;;;;;20.10;99.90;;;;;;5108179;28;19957;-76
2022/09/08 10:45:10;;;;;;;;;;;20.00;99.90;;;;;;5096396;28;19908;-76
2022/09/08 10:47:38;;;;;;;;;;;20.00;99.90;;;;;;5092531;28;20377;-76
2022/09/08 10:50:21;;;;;;;;;;;20.30;99.90;;;;;;5106804;28;20366;-78
2022/09/08 10:52:49;;;;;;;;;;;20.60;99.90;;;;;;5107905;28;19916;-75
2022/09/08 10:55:27;;;;;;;;;;;20.80;99.90;;;;;;5117178;28;19907;-76
2022/09/08 10:57:56;;;;;;;;;;;20.90;99.90;;;;;;5116424;28;19957;-75
2022/09/08 11:00:23;;;;;;;;;;;21.20;99.90;;;;;;5115332;28;19912;-76
2022/09/08 11:03:15;;;;;;;;;;;21.60;99.90;;;;;;5116594;28;19926;-76
2022/09/08 11:05:52;;;;;;;;;;;21.90;99.90;;;;;;5090197;28;19908;-75
2022/09/08 11:08:27;;;;;;;;;;;21.90;99.90;;;;;;5102489;28;19911;-77
2022/09/08 11:11:08;;;;;;;;;;;21.70;99.90;;;;;;5091267;28;19922;-76
2022/09/08 11:13:39;;;;;;;;;;;21.70;99.90;;;;;;5110932;28;19912;-75
2022/09/08 11:16:23;;;;;;;;;;;21.50;99.90;;;;;;5116811;28;19914;-76
2022/09/08 11:19:07;;;;;;;;;;;21.40;99.90;;;;;;5107786;28;20271;-76
2022/09/08 11:21:47;;;;;;;;;;;21.60;99.90;;;;;;5103747;28;19916;-76
2022/09/08 11:24:24;;;;;;;;;;;22.00;99.90;;;;;;5108737;28;19938;-76
2022/09/08 11:26:50;;;;;;;;;;;22.20;99.90;;;;;;5111556;28;20303;-75
2022/09/08 11:29:16;;;;;;;;;;;22.40;99.90;;;;;;5106777;28;19908;-76
2022/09/08 11:31:53;;;;;;;;;;;22.70;99.90;;;;;;5097600;28;19916;-75
2022/09/08 11:34:37;;;;;;;;;;;23.00;99.90;;;;;;5116307;28;19960;-76
2022/09/08 11:37:15;;;;;;;;;;;23.00;99.90;;;;;;5082761;28;20618;-75
2022/09/08 11:39:46;;;;;;;;;;;22.70;99.90;;;;;;5095430;28;19947;-75
2022/09/08 11:42:30;;;;;;;;;;;22.70;99.90;;;;;;5103506;28;20333;-75
2022/09/08 11:45:08;;;;;;;;;;;22.90;99.90;;;;;;5106985;28;19912;-74
2022/09/08 11:47:52;;;;;;;;;;;23.20;99.90;;;;;;5104559;28;19912;-75
2022/09/08 11:50:22;;;;;;;;;;;23.20;99.90;;;;;;5078387;28;19927;-75
2022/09/08 11:52:56;;;;;;;;;;;23.10;99.90;;;;;;5098747;28;19919;-75
2022/09/08 11:55:40;;;;;;;;;;;23.10;99.90;;;;;;5106691;28;19915;-75
2022/09/08 11:58:21;;;;;;;;;;;23.00;99.90;;;;;;5082641;28;19912;-75
2022/09/08 12:01:00;;;;;;;;;;;22.80;99.90;;;;;;5106209;28;19920;-75
2022/09/08 12:03:40;;;;;;;;;;;22.70;99.90;;;;;;5100639;28;19915;-75
2022/09/08 12:06:18;;;;;;;;;;;22.60;99.90;;;;;;5100393;28;19907;-75
2022/09/08 12:08:50;;;;;;;;;;;22.70;99.90;;;;;;5099821;28;19912;-73
2022/09/08 12:11:34;;;;;;;;;;;22.70;99.90;;;;;;5105642;28;20316;-75
2022/09/08 12:14:18;;;;;;;;;;;22.80;99.90;;;;;;5100412;28;19916;-75
2022/09/08 12:16:49;;;;;;;;;;;22.60;99.90;;;;;;5098956;28;19972;-75
2022/09/08 12:19:25;;;;;;;;;;;22.30;99.90;;;;;;5102016;28;19959;-75
2022/09/08 12:22:06;;;;;;;;;;;22.30;99.90;;;;;;5083243;28;19937;-76
2022/09/08 12:24:51;;;;;;;;;;;22.40;99.90;;;;;;5094832;28;19919;-75
2022/09/08 12:27:16;;;;;;;;;;;22.50;99.90;;;;;;5097759;28;19918;-77
2022/09/08 12:29:51;;;;;;;;;;;22.80;99.90;;;;;;5100815;28;20405;-75
2022/09/08 12:32:35;;;;;;;;;;;22.80;99.90;;;;;;5096912;28;20329;-76
2022/09/08 12:35:19;;;;;;;;;;;22.80;99.90;;;;;;5081488;28;20333;-77
2022/09/08 12:37:45;;;;;;;;;;;23.10;99.90;;;;;;5090577;28;19918;-75
2022/09/08 12:40:18;;;;;;;;;;;23.40;99.90;;;;;;5079167;28;20535;-75
2022/09/08 12:43:07;;;;;;;;;;;23.60;99.90;;;;;;5103964;28;19919;-74
2022/09/08 12:45:43;;;;;;;;;;;23.50;99.90;;;;;;5099245;28;19916;-75
2022/09/08 12:48:18;;;;;;;;;;;23.10;99.90;;;;;;5084572;28;19916;-75
2022/09/08 12:50:44;;;;;;;;;;;22.90;99.90;;;;;;5096821;28;19912;-76
2022/09/08 12:53:18;;;;;;;;;;;22.80;99.90;;;;;;5097485;28;19969;-75
2022/09/08 12:55:49;;;;;;;;;;;22.60;99.90;;;;;;5099982;28;19927;-77
2022/09/08 12:58:22;;;;;;;;;;;22.70;99.90;;;;;;5102364;28;20349;-75
2022/09/08 13:00:59;;;;;;;;;;;22.90;99.90;;;;;;5084050;28;19916;-75
2022/09/08 13:03:27;;;;;;;;;;;23.20;99.90;;;;;;5088598;28;20306;-74
2022/09/08 13:05:56;;;;;;;;;;;23.50;99.90;;;;;;5108025;28;20215;-75
2022/09/08 13:08:31;;;;;;;;;;;23.60;99.90;;;;;;5101762;28;19951;-76
2022/09/08 13:11:20;;;;;;;;;;;23.70;99.90;;;;;;5082005;28;19919;-74
2022/09/08 13:13:46;;;;;;;;;;;23.70;99.90;;;;;;5093444;28;19952;-74
2022/09/08 13:16:14;;;;;;;;;;;23.80;99.90;;;;;;5090661;28;19996;-75
2022/09/08 13:18:40;;;;;;;;;;;23.90;99.90;;;;;;5110714;28;19924;-74
2022/09/08 13:21:10;;;;;;;;;;;23.80;99.90;;;;;;5113216;28;20329;-75
2022/09/08 13:23:51;;;;;;;;;;;23.90;99.90;;;;;;5112248;28;19955;-75
2022/09/08 13:26:26;;;;;;;;;;;24.00;99.90;;;;;;5093552;28;19981;-75
2022/09/08 13:29:10;;;;;;;;;;;24.10;99.90;;;;;;5097841;28;20307;-74
2022/09/08 13:31:39;;;;;;;;;;;24.10;99.90;;;;;;5080252;28;20014;-75
2022/09/08 13:34:23;;;;;;;;;;;24.20;99.90;;;;;;5113856;28;19908;-75
2022/09/08 13:37:03;;;;;;;;;;;24.20;99.90;;;;;;5104141;28;19994;-76
2022/09/08 13:39:29;;;;;;;;;;;24.20;99.90;;;;;;5111496;28;19908;-75
2022/09/08 13:41:55;;;;;;;;;;;24.10;99.90;;;;;;5108522;28;19908;-75
2022/09/08 13:44:31;;;;;;;;;;;24.00;99.90;;;;;;5085771;28;20310;-76
2022/09/08 13:47:16;;;;;;;;;;;23.80;99.90;;;;;;5106262;28;19908;-75
2022/09/08 13:49:57;;;;;;;;;;;23.60;99.90;;;;;;5083456;28;20306;-75
2022/09/08 13:52:25;;;;;;;;;;;23.70;99.90;;;;;;5107017;28;20319;-75
2022/09/08 13:55:03;;;;;;;;;;;23.90;99.90;;;;;;5104499;28;19946;-75
2022/09/08 13:57:31;;;;;;;;;;;24.00;99.90;;;;;;5097973;28;20302;-75
2022/09/08 13:59:59;;;;;;;;;;;24.10;99.90;;;;;;5111156;28;20014;-74
2022/09/08 14:02:35;;;;;;;;;;;24.00;99.90;;;;;;5102595;27;19912;-74
2022/09/08 14:05:16;;;;;;;;;;;24.00;99.90;;;;;;5104288;28;19915;-77
2022/09/08 14:08:05;;;;;;;;;;;23.80;99.90;;;;;;5087436;28;19923;-76
2022/09/08 14:10:40;;;;;;;;;;;23.50;99.90;;;;;;5062917;28;19962;-78
2022/09/08 14:13:14;;;;;;;;;;;23.30;99.90;;;;;;5089935;28;19920;-78
2022/09/08 14:15:43;;;;;;;;;;;23.30;99.90;;;;;;5088391;28;19919;-75
2022/09/08 14:18:29;;;;;;;;;;;23.50;99.90;;;;;;5096126;28;19916;-76
2022/09/08 14:21:10;;;;;;;;;;;23.50;99.90;;;;;;5106003;28;19911;-74
2022/09/08 14:23:46;;;;;;;;;;;23.60;99.90;;;;;;5101307;28;19908;-75
2022/09/08 14:26:25;;;;;;;;;;;23.60;99.90;;;;;;5101441;28;19999;-75
2022/09/08 14:29:06;;;;;;;;;;;23.60;99.90;;;;;;5112632;28;19920;-76
2022/09/08 14:31:45;;;;;;;;;;;23.70;99.90;;;;;;5098765;28;19920;-76
2022/09/08 14:34:29;;;;;;;;;;;23.70;99.90;;;;;;5087811;28;19920;-75
2022/09/08 14:36:55;;;;;;;;;;;23.70;99.90;;;;;;5081847;28;19916;-75
2022/09/08 14:39:26;;;;;;;;;;;23.80;99.90;;;;;;5110127;28;19915;-75
2022/09/08 14:41:53;;;;;;;;;;;23.80;99.90;;;;;;5102696;28;19916;-75
2022/09/08 14:44:22;;;;;;;;;;;23.60;99.90;;;;;;5109072;28;19970;-75